Time;durP1;ratioP1;P1;durP2;ratioP2;P2;SDS_P1;SDS_P2;PMS_P1;PMS_P2;Temp;Humidity;BMP_temperature;BMP_pressure;BME280_temperature;BME280_humidity;BME280_pressure;Samples;Min_cycle;Max_cycle;Signal;HPM_P1;HPM_P2
2022/09/24 00:01:22;;;;;;;10.55;8.43;;;;;;;7.51;100.00;99841.28;1779374;80;22040;-61
2022/09/24 00:03:56;;;;;;;8.98;7.08;;;;;;;7.38;100.00;99839.73;1777234;80;20963;-62
2022/09/24 00:06:23;;;;;;;9.63;6.95;;;;;;;7.43;100.00;99839.23;1765374;81;20964;-61
2022/09/24 00:08:55;;;;;;;9.15;6.83;;;;;;;7.36;100.00;99837.02;1767206;81;21000;-61
2022/09/24 00:11:25;;;;;;;9.18;6.92;;;;;;;7.43;100.00;99832.27;1766897;81;20956;-64
2022/09/24 00:13:52;;;;;;;8.80;6.78;;;;;;;7.49;100.00;99828.95;1766824;81;21289;-61
2022/09/24 00:16:21;;;;;;;9.00;6.97;;;;;;;7.54;100.00;99824.08;1767137;81;20929;-61
2022/09/24 00:18:48;;;;;;;9.08;6.78;;;;;;;7.53;100.00;99827.63;1767045;81;20967;-61
2022/09/24 00:21:22;;;;;;;9.13;7.08;;;;;;;7.61;100.00;99831.14;1766973;81;20972;-65
2022/09/24 00:23:53;;;;;;;10.08;7.05;;;;;;;7.67;100.00;99829.16;1766575;81;21545;-61
2022/09/24 00:29:07;;;;;;;8.00;5.65;;;;;;;7.79;100.00;99831.65;1740578;81;20928;-65
2022/09/24 00:31:35;;;;;;;8.35;6.28;;;;;;;7.90;100.00;99832.53;1766719;81;21086;-61
2022/09/24 00:34:02;;;;;;;8.67;6.73;;;;;;;7.94;100.00;99829.89;1767115;81;20932;-61
2022/09/24 00:36:29;;;;;;;9.83;6.47;;;;;;;8.00;100.00;99823.20;1767625;81;21665;-62
2022/09/24 00:38:57;;;;;;;8.30;6.40;;;;;;;8.11;100.00;99825.87;1767079;81;21239;-65
2022/09/24 00:41:31;;;;;;;7.33;6.17;;;;;;;8.28;100.00;99826.00;1766020;81;21062;-60
2022/09/24 00:43:58;;;;;;;8.17;6.50;;;;;;;8.15;100.00;99819.34;1767070;81;21514;-60
2022/09/24 00:46:33;;;;;;;9.77;6.40;;;;;;;8.10;100.00;99817.75;1767115;81;21174;-60
2022/09/24 00:49:13;;;;;;;8.90;6.40;;;;;;;8.05;100.00;99817.78;1766466;81;21068;-67
2022/09/24 00:51:46;;;;;;;7.87;6.35;;;;;;;8.00;100.00;99812.83;1765208;81;21164;-60
2022/09/24 00:54:18;;;;;;;9.28;7.12;;;;;;;7.92;100.00;99809.81;1741508;81;21005;-61
2022/09/24 00:56:47;;;;;;;8.85;7.10;;;;;;;7.80;100.00;99806.84;1766264;81;20975;-66
2022/09/24 00:59:16;;;;;;;10.47;7.00;;;;;;;7.64;100.00;99806.97;1766745;81;21079;-61
2022/09/24 01:01:44;;;;;;;10.03;6.83;;;;;;;7.57;100.00;99809.94;1764154;80;21900;-62
2022/09/24 01:04:12;;;;;;;10.30;7.23;;;;;;;7.41;100.00;99806.98;1722050;81;21601;-61
2022/09/24 01:06:40;;;;;;;9.55;7.40;;;;;;;7.34;100.00;99809.14;1756355;81;21235;-60
2022/09/24 01:09:08;;;;;;;9.25;6.67;;;;;;;7.33;100.00;99817.41;1729061;81;21091;-61
2022/09/24 01:11:54;;;;;;;8.30;6.90;;;;;;;7.24;100.00;99813.27;1747848;81;21067;-61
2022/09/24 01:15:10;;;;;;;8.15;6.12;;;;;;;7.22;100.00;99816.02;1733630;82;21010;-63
2022/09/24 01:17:55;;;;;;;9.55;6.67;;;;;;;7.10;100.00;99816.10;1746667;81;21159;-61
2022/09/24 01:20:51;;;;;;;10.70;6.22;;;;;;;7.00;100.00;99818.09;1751365;81;21020;-60
2022/09/24 01:23:44;;;;;;;9.85;7.12;;;;;;;7.06;100.00;99816.13;1749043;81;20992;-62
2022/09/24 01:26:38;;;;;;;11.28;7.45;;;;;;;7.04;100.00;99809.80;1757182;81;21013;-62
2022/09/24 01:29:30;;;;;;;9.33;6.60;;;;;;;7.03;100.00;99812.09;1747965;81;21046;-61
2022/09/24 01:32:18;;;;;;;10.08;7.05;;;;;;;7.01;100.00;99814.05;1761066;80;21224;-65
2022/09/24 01:35:03;;;;;;;8.83;7.37;;;;;;;6.99;100.00;99818.59;1754241;81;20955;-61
2022/09/24 01:37:31;;;;;;;9.80;6.72;;;;;;;7.06;100.00;99819.52;1730888;81;20932;-64
2022/09/24 01:39:58;;;;;;;9.88;6.17;;;;;;;7.10;100.00;99814.00;1751965;81;20932;-62
2022/09/24 01:42:27;;;;;;;8.75;6.55;;;;;;;6.87;100.00;99816.56;1728636;82;21096;-63
2022/09/24 01:44:54;;;;;;;10.03;7.10;;;;;;;6.89;100.00;99806.33;1767469;80;21154;-61
2022/09/24 01:47:38;;;;;;;10.53;6.92;;;;;;;6.88;100.00;99802.13;1749887;81;20876;-65
2022/09/24 01:50:10;;;;;;;9.58;7.03;;;;;;;6.89;100.00;99797.26;1749753;81;20936;-61
2022/09/24 01:52:59;;;;;;;10.98;7.25;;;;;;;6.93;100.00;99799.02;1720706;81;21039;-60
2022/09/24 01:55:28;;;;;;;10.65;7.22;;;;;;;6.87;100.00;99796.64;1749920;81;21069;-64
2022/09/24 01:58:07;;;;;;;9.80;7.15;;;;;;;6.91;100.00;99795.81;1750057;81;22370;-61
2022/09/24 02:00:39;;;;;;;10.00;7.37;;;;;;;6.95;100.00;99800.47;1749474;81;20928;-64
2022/09/24 02:03:12;;;;;;;9.20;7.72;;;;;;;7.02;100.00;99797.52;1749437;81;21073;-66
2022/09/24 02:06:07;;;;;;;8.75;6.97;;;;;;;7.10;100.00;99799.25;1749953;81;22633;-61
2022/09/24 02:08:43;;;;;;;9.25;7.12;;;;;;;7.17;100.00;99798.09;1750239;81;21069;-65
2022/09/24 02:11:15;;;;;;;9.50;7.58;;;;;;;7.22;100.00;99791.39;1750132;81;21224;-62
2022/09/24 02:13:59;;;;;;;9.28;7.35;;;;;;;7.21;100.00;99791.58;1749997;81;21540;-65
2022/09/24 02:16:30;;;;;;;9.83;7.90;;;;;;;7.21;100.00;99788.98;1749384;81;20962;-62
2022/09/24 02:19:00;;;;;;;12.65;7.20;;;;;;;7.23;100.00;99784.42;1750745;81;21105;-62
2022/09/24 02:21:28;;;;;;;12.45;7.03;;;;;;;7.20;100.00;99785.59;1749803;81;20888;-62
2022/09/24 02:24:03;;;;;;;8.40;6.80;;;;;;;7.27;100.00;99789.57;1750016;81;21175;-61
2022/09/24 02:26:30;;;;;;;11.05;7.28;;;;;;;7.24;100.00;99789.45;1748779;81;20940;-61
2022/09/24 02:28:58;;;;;;;10.30;7.25;;;;;;;7.23;100.00;99790.90;1750148;81;21097;-60
2022/09/24 02:31:32;;;;;;;9.38;7.25;;;;;;;7.19;100.00;99787.04;1749647;81;20967;-66
2022/09/24 02:34:20;;;;;;;8.73;7.05;;;;;;;7.25;100.00;99786.36;1750125;81;21059;-61
2022/09/24 02:36:53;;;;;;;10.10;7.30;;;;;;;7.21;100.00;99796.27;1766937;80;21181;-65
2022/09/24 02:39:21;;;;;;;10.93;7.12;;;;;;;7.11;100.00;99792.28;1749384;81;22012;-60
2022/09/24 02:41:48;;;;;;;10.88;7.67;;;;;;;7.05;100.00;99797.67;1749359;81;20915;-67
2022/09/24 02:44:16;;;;;;;10.68;8.05;;;;;;;7.00;100.00;99800.75;1749948;81;21037;-63
2022/09/24 02:46:44;;;;;;;9.38;7.17;;;;;;;6.97;100.00;99798.99;1749972;81;21027;-63
2022/09/24 02:49:13;;;;;;;9.35;7.25;;;;;;;7.00;100.00;99798.66;1775657;80;20960;-60
2022/09/24 02:51:41;;;;;;;9.60;7.45;;;;;;;7.03;100.00;99800.42;1780896;80;21058;-60
2022/09/24 02:54:08;;;;;;;10.85;8.08;;;;;;;6.98;100.00;99803.22;1780417;80;21069;-61
2022/09/24 02:56:36;;;;;;;10.63;7.58;;;;;;;6.87;100.00;99808.30;1780991;80;20951;-60
2022/09/24 02:59:05;;;;;;;10.53;7.55;;;;;;;6.81;100.00;99802.48;1780463;80;20971;-65
2022/09/24 03:01:32;;;;;;;9.65;6.62;;;;;;;6.75;100.00;99802.69;1781203;80;21850;-62
2022/09/24 03:03:59;;;;;;;12.13;8.03;;;;;;;6.80;100.00;99799.09;1780611;80;21390;-66
2022/09/24 03:06:26;;;;;;;10.23;7.50;;;;;;;6.77;100.00;99802.02;1780722;80;21513;-60
2022/09/24 03:08:55;;;;;;;10.95;7.28;;;;;;;6.81;100.00;99801.19;1780726;80;20880;-65
2022/09/24 03:11:23;;;;;;;9.25;6.80;;;;;;;6.81;100.00;99805.88;1780926;80;21531;-60
2022/09/24 03:13:51;;;;;;;8.98;7.45;;;;;;;6.88;100.00;99811.19;1780886;80;21930;-62
2022/09/24 03:16:18;;;;;;;9.88;6.95;;;;;;;6.88;100.00;99816.88;1780731;80;20924;-61
2022/09/24 03:18:47;;;;;;;11.22;8.23;;;;;;;6.89;100.00;99815.39;1781056;80;21457;-61
2022/09/24 03:21:16;;;;;;;10.30;7.70;;;;;;;6.85;100.00;99814.12;1780241;80;20948;-62
2022/09/24 03:23:43;;;;;;;10.90;6.95;;;;;;;6.77;100.00;99819.34;1781091;80;21050;-60
2022/09/24 03:26:12;;;;;;;9.70;7.05;;;;;;;6.83;100.00;99816.89;1780478;80;21307;-62
2022/09/24 03:28:41;;;;;;;11.73;8.00;;;;;;;6.96;100.00;99813.73;1780973;80;20955;-61
2022/09/24 03:31:08;;;;;;;10.68;8.43;;;;;;;7.18;100.00;99810.86;1780665;80;20885;-66
2022/09/24 03:33:40;;;;;;;10.72;7.85;;;;;;;7.44;100.00;99803.24;1780911;80;21524;-61
2022/09/24 03:36:23;;;;;;;13.90;9.35;;;;;;;7.78;100.00;99811.39;1780428;80;20916;-64
2022/09/24 03:38:56;;;;;;;10.40;8.03;;;;;;;8.28;100.00;99808.63;1781050;80;22119;-62
2022/09/24 03:41:24;;;;;;;8.77;6.67;;;;;;;8.93;100.00;99807.06;1780860;80;21060;-61
2022/09/24 03:43:52;;;;;;;9.30;7.53;;;;;;;9.48;100.00;99808.72;1780419;80;21266;-66
2022/09/24 03:46:19;;;;;;;10.13;7.37;;;;;;;9.87;100.00;99814.73;1781022;80;21220;-61
2022/09/24 03:48:46;;;;;;;8.77;7.00;;;;;;;10.33;100.00;99818.67;1781117;80;21287;-61
2022/09/24 03:51:20;;;;;;;10.23;7.80;;;;;;;10.88;100.00;99809.11;1780621;80;21278;-66
2022/09/24 03:53:47;;;;;;;13.40;10.17;;;;;;;11.54;100.00;99812.34;1780420;80;21859;-64
2022/09/24 03:56:14;;;;;;;11.00;9.30;;;;;;;11.54;100.00;99812.34;1780992;80;21499;-62
2022/09/24 03:58:46;;;;;;;11.50;7.70;;;;;;;11.71;100.00;99807.53;1780966;80;21860;-61
2022/09/24 04:01:14;;;;;;;9.40;7.07;;;;;;;12.16;100.00;99807.22;1780714;80;21425;-67
2022/09/24 04:03:41;;;;;;;7.83;6.80;;;;;;;12.79;100.00;99811.32;1780502;80;21725;-67
2022/09/24 04:06:10;;;;;;;7.70;6.53;;;;;;;13.63;100.00;99810.73;1780547;80;21597;-61
2022/09/24 04:08:39;;;;;;;9.33;7.27;;;;;;;14.49;100.00;99813.88;1781050;80;21008;-61
2022/09/24 04:11:06;;;;;;;8.33;6.47;;;;;;;15.37;100.00;99804.64;1780903;80;20892;-61
2022/09/24 04:13:33;;;;;;;7.30;6.13;;;;;;;16.36;100.00;99792.16;1780351;80;20963;-61
2022/09/24 04:16:02;;;;;;;7.47;6.30;;;;;;;17.29;100.00;99790.23;1780610;80;21157;-66
2022/09/24 04:18:30;;;;;;;7.53;6.13;;;;;;;18.18;100.00;99792.39;1780787;80;21284;-61
2022/09/24 04:20:59;;;;;;;6.70;6.00;;;;;;;18.83;100.00;99801.35;1780996;80;20991;-61
2022/09/24 04:23:30;;;;;;;7.33;6.50;;;;;;;19.46;100.00;99800.32;1780422;80;20908;-61
2022/09/24 04:25:59;;;;;;;7.47;6.17;;;;;;;20.11;100.00;99805.80;1780799;80;21046;-66
2022/09/24 04:28:26;;;;;;;6.97;6.10;;;;;;;20.72;100.00;99812.43;1780809;80;21239;-61
2022/09/24 04:30:53;;;;;;;8.07;7.00;;;;;;;20.81;100.00;99812.21;1781034;80;21042;-61
2022/09/24 04:33:20;;;;;;;7.23;6.47;;;;;;;20.84;100.00;99808.51;1780453;80;21070;-66
2022/09/24 04:35:47;;;;;;;7.90;6.30;;;;;;;20.93;100.00;99815.41;1780921;80;21058;-61
2022/09/24 04:38:14;;;;;;;7.17;6.47;;;;;;;21.33;100.00;99812.59;1780331;80;21466;-63
2022/09/24 04:40:42;;;;;;;7.43;5.77;;;;;;;21.78;100.00;99813.59;1781066;80;21772;-61
2022/09/24 04:43:10;;;;;;;6.77;6.07;;;;;;;22.22;97.10;99803.72;1780391;80;21501;-66
2022/09/24 04:45:37;;;;;;;7.27;6.00;;;;;;;22.66;87.86;99807.78;1780849;80;21090;-61
2022/09/24 04:48:04;;;;;;;7.17;6.47;;;;;;;23.08;79.66;99813.14;1772367;80;21429;-67
2022/09/24 04:50:33;;;;;;;8.53;6.87;;;;;;;23.41;71.27;99816.89;1773577;80;21022;-62
2022/09/24 04:53:01;;;;;;;7.60;6.70;;;;;;;23.67;64.91;99816.67;1750255;80;21130;-61
2022/09/24 04:55:28;;;;;;;7.77;6.97;;;;;;;23.61;61.68;99821.23;1780381;80;20899;-61
2022/09/24 04:57:57;;;;;;;7.67;6.87;;;;;;;23.07;60.64;99811.56;1780892;80;21050;-60
2022/09/24 05:00:24;;;;;;;9.23;7.63;;;;;;;22.31;62.39;99806.88;1780218;80;20931;-61
2022/09/24 05:02:58;;;;;;;11.67;10.47;;;;;;;21.49;65.26;99815.50;1781077;80;21019;-61
2022/09/24 05:05:25;;;;;;;12.83;11.17;;;;;;;20.50;76.56;99813.44;1780212;80;21083;-62
2022/09/24 05:07:55;;;;;;;11.87;10.47;;;;;;;19.81;87.05;99808.27;1766657;81;20995;-65
2022/09/24 05:10:23;;;;;;;11.07;9.53;;;;;;;19.24;100.00;99810.17;1766985;81;20983;-60
2022/09/24 05:12:50;;;;;;;10.20;8.50;;;;;;;18.79;100.00;99808.67;1767033;81;21430;-61
2022/09/24 05:15:20;;;;;;;9.73;8.03;;;;;;;18.39;100.00;99803.19;1766475;81;21035;-64
2022/09/24 05:17:48;;;;;;;11.83;8.10;;;;;;;18.01;100.00;99810.08;1767241;81;21164;-64
2022/09/24 05:20:16;;;;;;;9.90;8.67;;;;;;;17.75;100.00;99813.66;1766595;81;20983;-61
2022/09/24 05:22:44;;;;;;;9.10;8.10;;;;;;;17.52;100.00;99816.42;1767147;81;20925;-61
2022/09/24 05:25:12;;;;;;;8.90;7.93;;;;;;;17.27;100.00;99820.74;1766616;81;20920;-64
2022/09/24 05:27:46;;;;;;;10.47;8.13;;;;;;;17.07;100.00;99826.46;1766578;81;21354;-65
2022/09/24 05:30:13;;;;;;;9.80;7.70;;;;;;;16.91;100.00;99825.91;1767205;81;21225;-61
2022/09/24 05:32:42;;;;;;;8.90;7.63;;;;;;;16.78;100.00;99823.02;1767043;81;21521;-61
2022/09/24 05:35:09;;;;;;;9.23;7.43;;;;;;;16.71;100.00;99823.14;1767278;81;21553;-65
2022/09/24 05:37:37;;;;;;;11.30;6.97;;;;;;;16.56;100.00;99825.47;1766529;81;22406;-64
2022/09/24 05:42:50;;;;;;;8.90;6.83;;;;;;;16.25;100.00;99830.11;1767038;81;22157;-63
2022/09/24 05:45:18;;;;;;;8.90;6.70;;;;;;;16.22;100.00;99821.88;1766404;81;21486;-65
2022/09/24 05:47:45;;;;;;;12.67;7.37;;;;;;;16.16;100.00;99813.06;1767211;81;20991;-62
2022/09/24 05:50:13;;;;;;;7.70;6.07;;;;;;;16.13;100.00;99812.20;1767101;81;20956;-63
2022/09/24 05:52:40;;;;;;;8.80;6.63;;;;;;;16.22;100.00;99808.73;1767067;81;20936;-63
2022/09/24 05:55:09;;;;;;;9.60;6.93;;;;;;;16.26;100.00;99806.71;1766515;81;21226;-63
2022/09/24 05:57:36;;;;;;;9.00;7.20;;;;;;;16.32;100.00;99807.60;1766439;81;20936;-63
2022/09/24 06:00:06;;;;;;;7.10;5.87;;;;;;;16.63;100.00;99806.90;1767047;81;21047;-62
2022/09/24 06:02:34;;;;;;;6.62;5.75;;;;;;;17.03;100.00;99809.53;1765968;81;21467;-63
2022/09/24 06:05:02;;;;;;;6.40;5.30;;;;;;;17.25;100.00;99806.50;1766692;81;22426;-62
2022/09/24 06:07:30;;;;;;;6.30;4.97;;;;;;;17.65;100.00;99812.17;1776700;80;22751;-63
2022/09/24 06:09:59;;;;;;;5.63;4.73;;;;;;;18.26;100.00;99808.80;1781118;80;21442;-64
2022/09/24 06:12:27;;;;;;;6.03;5.20;;;;;;;18.91;100.00;99808.83;1781071;80;21517;-65
2022/09/24 06:14:54;;;;;;;5.50;4.50;;;;;;;19.51;100.00;99800.88;1780550;80;21040;-61
2022/09/24 06:17:22;;;;;;;4.87;4.00;;;;;;;19.79;100.00;99793.98;1780429;80;21043;-64
2022/09/24 06:19:49;;;;;;;5.60;4.60;;;;;;;20.21;100.00;99789.72;1781046;80;21311;-63
2022/09/24 06:22:17;;;;;;;4.87;4.37;;;;;;;20.52;100.00;99788.02;1781213;80;20975;-63
2022/09/24 06:24:44;;;;;;;5.13;4.23;;;;;;;20.84;100.00;99791.29;1780585;80;21038;-66
2022/09/24 06:27:11;;;;;;;6.10;4.10;;;;;;;21.40;100.00;99794.53;1780603;80;21094;-66
2022/09/24 06:29:39;;;;;;;4.40;3.67;;;;;;;21.94;98.34;99791.83;1781148;80;21161;-64
2022/09/24 06:32:07;;;;;;;4.67;3.77;;;;;;;22.48;80.46;99789.80;1780978;80;21232;-63
2022/09/24 06:34:34;;;;;;;4.83;3.85;;;;;;;22.81;73.70;99794.95;1780998;80;20966;-63
2022/09/24 06:37:02;;;;;;;4.25;3.80;;;;;;;23.12;69.08;99792.11;1780430;80;21027;-64
2022/09/24 06:39:29;;;;;;;4.87;4.05;;;;;;;23.42;66.54;99789.20;1780335;80;21595;-65
2022/09/24 06:41:57;;;;;;;6.17;4.28;;;;;;;23.69;60.99;99795.91;1780126;80;21521;-63
2022/09/24 06:44:24;;;;;;;5.15;4.25;;;;;;;23.77;56.54;99795.30;1767029;80;21146;-62
2022/09/24 06:46:53;;;;;;;5.58;4.17;;;;;;;23.92;59.17;99799.12;1749360;81;20932;-63
2022/09/24 06:49:20;;;;;;;5.75;5.00;;;;;;;24.14;58.24;99796.51;1749481;81;20955;-63
2022/09/24 06:51:47;;;;;;;6.15;4.78;;;;;;;24.44;56.23;99804.70;1749959;81;21136;-61
2022/09/24 06:54:16;;;;;;;5.50;4.10;;;;;;;24.53;53.42;99807.52;1750142;81;21502;-62
2022/09/24 06:56:43;;;;;;;4.45;3.92;;;;;;;24.18;53.00;99818.28;1749501;81;21267;-63
2022/09/24 06:59:10;;;;;;;5.97;5.37;;;;;;;23.86;52.67;99821.55;1749351;81;20963;-66
2022/09/24 07:01:38;;;;;;;6.17;4.40;;;;;;;23.75;52.95;99825.37;1749999;81;21078;-61
2022/09/24 07:04:06;;;;;;;5.20;4.65;;;;;;;23.61;53.74;99828.42;1750137;81;21074;-61
2022/09/24 07:09:19;;;;;;;5.50;4.00;;;;;;;23.61;55.69;99827.09;1750296;81;21556;-61
2022/09/24 07:11:46;;;;;;;5.50;4.30;;;;;;;23.43;53.07;99816.05;1720496;81;20900;-61
2022/09/24 07:14:15;;;;;;;5.47;3.87;;;;;;;22.94;51.81;99814.28;1749548;81;21008;-64
2022/09/24 07:16:42;;;;;;;4.72;3.87;;;;;;;22.22;53.79;99808.48;1750170;81;22279;-65
2022/09/24 07:19:09;;;;;;;5.25;3.87;;;;;;;21.81;60.23;99807.77;1749411;81;21035;-61
2022/09/24 07:21:37;;;;;;;7.00;4.22;;;;;;;21.76;62.77;99809.11;1750171;81;21205;-61
2022/09/24 07:24:05;;;;;;;6.27;4.00;;;;;;;22.15;64.34;99804.53;1750019;81;20940;-61
2022/09/24 07:26:34;;;;;;;5.55;4.87;;;;;;;22.62;63.69;99796.66;1749347;81;21446;-66
2022/09/24 07:29:01;;;;;;;5.03;4.10;;;;;;;23.05;61.71;99805.17;1749710;81;21085;-61
2022/09/24 07:31:29;;;;;;;5.40;4.00;;;;;;;23.36;57.58;99801.48;1774661;80;21062;-60
2022/09/24 07:33:56;;;;;;;5.92;4.65;;;;;;;23.36;52.18;99805.48;1780936;80;21080;-60
2022/09/24 07:36:23;;;;;;;7.78;5.08;;;;;;;22.82;53.89;99805.29;1780112;80;20957;-68
2022/09/24 07:38:51;;;;;;;6.55;4.50;;;;;;;22.37;55.08;99802.33;1780496;80;21094;-65
2022/09/24 07:41:19;;;;;;;6.90;4.80;;;;;;;21.98;56.32;99810.13;1781015;80;21313;-61
2022/09/24 07:43:46;;;;;;;4.53;3.23;;;;;;;21.61;58.29;99808.59;1781029;80;20888;-59
2022/09/24 07:46:14;;;;;;;3.73;2.70;;;;;;;21.12;62.57;99807.75;1780724;80;21143;-68
2022/09/24 07:48:41;;;;;;;6.40;4.63;;;;;;;20.61;66.23;99815.06;1777963;80;21603;-68
2022/09/24 07:51:10;;;;;;;6.83;4.93;;;;;;;20.11;68.67;99816.38;1753910;80;21041;-62
2022/09/24 07:53:37;;;;;;;5.40;3.30;;;;;;;19.61;76.14;99818.94;1749243;81;21062;-62
2022/09/24 07:56:04;;;;;;;4.93;2.90;;;;;;;19.28;81.51;99822.66;1750059;81;21062;-62
2022/09/24 07:58:32;;;;;;;5.80;3.77;;;;;;;18.99;91.06;99831.35;1755264;80;21109;-66
2022/09/24 08:01:00;;;;;;;4.30;3.30;;;;;;;18.90;94.32;99827.55;1775896;80;21426;-63
2022/09/24 08:03:27;;;;;;;6.30;2.53;;;;;;;18.69;100.00;99828.62;1775570;80;22373;-61
2022/09/24 08:05:58;;;;;;;3.57;2.30;;;;;;;18.53;99.73;99822.09;1775535;80;20983;-62
2022/09/24 08:08:25;;;;;;;;;;;;;;;18.32;100.00;99823.15;1785856;80;20991;-61
2022/09/24 08:10:53;;;;;;;4.60;2.47;;;;;;;18.14;100.00;99815.52;1787287;80;21245;-68
2022/09/24 08:13:21;;;;;;;5.10;2.50;;;;;;;18.27;100.00;99813.06;1786809;80;20912;-62
2022/09/24 08:15:58;;;;;;;3.70;2.10;;;;;;;18.66;100.00;99807.98;1786078;80;20987;-64
2022/09/24 08:18:25;;;;;;;4.03;2.57;;;;;;;19.37;100.00;99805.81;1783712;80;21499;-59
2022/09/24 08:20:54;;;;;;;4.40;3.03;;;;;;;20.28;99.13;99791.08;1789266;80;22377;-61
2022/09/24 08:23:22;;;;;;;4.10;2.70;;;;;;;21.21;83.90;99791.58;1789617;80;21143;-60
2022/09/24 08:25:49;;;;;;;3.13;2.47;;;;;;;21.95;68.36;99783.59;1789512;80;20911;-61
2022/09/24 08:28:18;;;;;;;5.40;3.33;;;;;;;22.41;63.83;99778.14;1773920;80;20950;-65
2022/09/24 08:30:45;;;;;;;3.87;2.33;;;;;;;22.73;53.61;99783.55;1779492;80;20924;-60
2022/09/24 08:33:14;;;;;;;5.37;2.43;;;;;;;22.85;51.74;99781.37;1787345;80;21263;-60
2022/09/24 08:35:41;;;;;;;3.07;2.03;;;;;;;23.06;51.06;99783.36;1787522;80;21144;-62
2022/09/24 08:38:08;;;;;;;3.73;2.20;;;;;;;23.24;50.65;99772.06;1787788;80;20876;-60
2022/09/24 08:41:15;;;;;;;2.87;2.07;;;;;;;23.47;50.67;99781.17;1787389;80;20964;-61
2022/09/24 08:47:21;;;;;;;2.40;1.73;;;;;;;23.68;48.12;99777.83;1787644;80;20943;-60
2022/09/24 08:49:44;;;;;;;3.37;2.10;;;;;;;22.81;46.87;99785.11;1785902;80;21114;-63
2022/09/24 08:52:42;;;;;;;2.50;1.73;;;;;;;22.16;47.91;99784.88;1776094;80;21090;-60
2022/09/24 08:55:23;;;;;;;2.53;1.80;;;;;;;21.54;49.56;99778.89;1747183;81;21023;-65
2022/09/24 08:58:26;;;;;;;2.77;1.80;;;;;;;20.87;51.75;99782.83;1757635;81;21488;-59
2022/09/24 09:01:12;;;;;;;2.97;1.70;;;;;;;20.43;54.53;99782.94;1781244;80;22036;-61
2022/09/24 09:03:53;;;;;;;2.60;1.77;;;;;;;19.99;57.83;99788.55;1789369;80;21150;-66
2022/09/24 09:06:56;;;;;;;2.10;1.40;;;;;;;19.54;60.66;99783.98;1789614;80;21022;-61
2022/09/24 09:09:30;;;;;;;;;;;;;;;19.56;70.46;99778.47;1738647;80;21000;-63
2022/09/24 09:12:06;;;;;;;2.00;1.17;;;;;;;20.15;63.95;99769.86;1789673;80;20186;-60
2022/09/24 09:14:44;;;;;;;1.97;1.00;;;;;;;20.83;62.08;99763.19;1778735;80;21034;-62
2022/09/24 09:17:40;;;;;;;2.12;1.20;;;;;;;21.69;55.75;99763.48;1786821;79;21467;-60
2022/09/24 09:20:21;;;;;;;1.50;1.00;;;;;;;22.46;50.19;99757.39;1787548;80;20975;-60
2022/09/24 09:22:52;;;;;;;1.73;1.03;;;;;;;23.09;47.44;99757.56;1786812;80;21058;-62
2022/09/24 09:25:35;;;;;;;2.27;1.03;;;;;;;23.49;45.24;99748.98;1787111;78;21635;-60
2022/09/24 09:28:16;;;;;;;2.13;1.10;;;;;;;23.84;46.17;99747.84;1762523;80;20896;-58
2022/09/24 09:31:28;;;;;;;2.53;0.93;;;;;;;24.18;44.01;99738.94;1763685;80;21300;-57
2022/09/24 09:34:50;;;;;;;1.83;1.10;;;;;;;24.18;41.37;99739.72;1786714;80;20976;-59
2022/09/24 09:37:30;;;;;;;2.40;1.20;;;;;;;24.13;42.46;99744.30;1726956;82;21151;-59
2022/09/24 09:40:17;;;;;;;1.53;1.00;;;;;;;24.40;43.07;99739.21;1781185;80;21465;-60
2022/09/24 09:42:46;;;;;;;1.90;1.00;;;;;;;24.61;41.63;99732.25;1787046;80;20963;-59
2022/09/24 09:45:36;;;;;;;1.50;0.90;;;;;;;24.58;41.24;99727.49;1787543;79;21211;-59
2022/09/24 09:48:05;;;;;;;3.13;2.40;;;;;;;24.46;41.84;99736.71;1787522;80;21031;-60
2022/09/24 09:50:47;;;;;;;2.90;1.95;;;;;;;24.41;41.54;99726.13;1787082;80;20984;-59
2022/09/24 09:53:26;;;;;;;2.07;1.30;;;;;;;24.61;42.33;99729.59;1787358;79;21098;-66
2022/09/24 09:56:06;;;;;;;1.47;0.97;;;;;;;24.75;39.70;99721.13;1787181;78;21011;-61
2022/09/24 09:58:46;;;;;;;1.50;0.70;;;;;;;24.26;39.01;99733.75;1787686;80;21116;-59
2022/09/24 10:01:18;;;;;;;1.43;0.80;;;;;;;23.68;39.26;99732.59;1787170;79;20943;-60
2022/09/24 10:03:55;;;;;;;2.00;0.90;;;;;;;23.37;40.57;99736.03;1763348;79;24927;-60
2022/09/24 10:06:30;;;;;;;1.40;0.93;;;;;;;23.23;40.65;99723.16;1787219;80;21057;-59
2022/09/24 10:09:20;;;;;;;1.57;0.80;;;;;;;23.11;41.03;99722.20;1777655;79;20904;-57
2022/09/24 10:12:25;;;;;;;1.60;0.80;;;;;;;23.06;41.27;99728.33;1747303;80;21241;-59
2022/09/24 10:15:16;;;;;;;1.67;1.00;;;;;;;23.12;41.17;99716.34;1759958;80;20880;-60
2022/09/24 10:17:43;;;;;;;1.60;0.90;;;;;;;23.16;41.90;99718.70;1752544;81;20951;-66
2022/09/24 10:20:26;;;;;;;2.10;1.10;;;;;;;23.32;42.02;99717.48;1752695;81;21018;-66
2022/09/24 10:23:02;;;;;;;1.40;0.80;;;;;;;23.48;40.90;99710.92;1753330;81;20939;-59
2022/09/24 10:25:30;;;;;;;1.40;0.90;;;;;;;23.54;40.23;99712.47;1764209;80;21126;-59
2022/09/24 10:30:59;;;;;;;1.67;0.80;;;;;;;23.50;39.80;99713.33;1752946;81;20999;-60
2022/09/24 10:33:27;;;;;;;2.53;0.90;;;;;;;23.07;40.32;99714.52;1759168;80;20963;-63
2022/09/24 10:36:06;;;;;;;1.60;0.70;;;;;;;22.56;41.46;99714.85;1775151;80;21137;-56
2022/09/24 10:38:34;;;;;;;1.77;0.80;;;;;;;22.16;42.16;99720.66;1774631;80;22292;-63
2022/09/24 10:41:01;;;;;;;2.63;0.97;;;;;;;21.75;42.96;99728.73;1775588;80;21046;-57
2022/09/24 10:43:28;;;;;;;2.73;1.10;;;;;;;21.34;42.84;99723.50;1774964;80;20964;-56
2022/09/24 10:46:03;;;;;;;2.00;0.83;;;;;;;20.97;44.79;99725.06;1773012;80;21653;-57
2022/09/24 10:48:46;;;;;;;2.27;1.27;;;;;;;20.80;46.03;99728.51;1775044;80;20995;-64
2022/09/24 10:51:42;;;;;;;1.50;0.87;;;;;;;20.78;48.92;99725.31;1774989;80;21137;-57
2022/09/24 10:54:50;;;;;;;1.77;1.00;;;;;;;20.93;48.14;99730.62;1774863;80;20949;-58
2022/09/24 10:58:04;;;;;;;1.53;0.80;;;;;;;20.92;47.30;99729.05;1775524;80;20997;-59
2022/09/24 11:00:37;;;;;;;2.17;1.23;;;;;;;21.09;44.04;99724.80;1775548;80;21364;-59
2022/09/24 11:03:35;;;;;;;2.17;0.80;;;;;;;21.27;45.01;99716.31;1775503;80;21003;-59
2022/09/24 11:06:37;;;;;;;2.37;1.07;;;;;;;21.29;45.82;99718.17;1775668;80;21261;-59
2022/09/24 11:09:30;;;;;;;1.60;0.80;;;;;;;21.25;47.32;99718.95;1783659;80;21062;-60
2022/09/24 11:12:08;;;;;;;2.33;0.90;;;;;;;21.08;46.46;99710.75;1786934;80;22284;-60
2022/09/24 11:15:22;;;;;;;2.00;1.03;;;;;;;20.80;47.74;99716.59;1787468;80;21006;-59
2022/09/24 11:18:11;;;;;;;2.00;1.00;;;;;;;20.61;48.58;99715.77;1787647;80;21002;-59
2022/09/24 11:20:41;;;;;;;2.63;1.30;;;;;;;20.52;50.09;99718.64;1772110;80;21269;-59
2022/09/24 11:23:22;;;;;;;1.73;0.70;;;;;;;20.36;50.50;99720.42;1762974;80;21453;-60
2022/09/24 11:25:58;;;;;;;2.30;1.07;;;;;;;20.22;51.81;99711.91;1786282;80;20920;-67
2022/09/24 11:28:59;;;;;;;2.00;0.90;;;;;;;20.31;52.23;99710.37;1787344;79;21043;-60
2022/09/24 11:32:05;;;;;;;;;;;;;;;20.61;49.30;99707.81;1779332;80;20919;-67
2022/09/24 11:34:59;;;;;;;1.50;0.80;;;;;;;20.60;46.71;99706.73;1758435;81;22250;-57
2022/09/24 11:38:01;;;;;;;2.10;0.93;;;;;;;20.26;47.33;99707.69;1788866;80;21512;-66
2022/09/24 11:41:09;;;;;;;1.17;0.63;;;;;;;19.90;50.10;99716.28;1789597;80;21040;-59
2022/09/24 11:44:10;;;;;;;3.00;0.60;;;;;;;19.56;53.54;99726.39;1762997;80;20951;-59
2022/09/24 11:47:06;;;;;;;1.75;0.82;;;;;;;19.42;61.44;99719.94;1789619;80;22621;-66
2022/09/24 11:49:54;;;;;;;1.20;0.50;;;;;;;19.41;65.38;99724.96;1789935;80;21172;-66
2022/09/24 11:52:40;;;;;;;1.07;0.60;;;;;;;19.36;64.83;99729.70;1788794;80;21734;-58
2022/09/24 11:55:31;;;;;;;1.00;0.50;;;;;;;19.22;67.85;99731.70;1789500;80;21047;-67
2022/09/24 11:58:34;;;;;;;1.27;0.53;;;;;;;19.04;70.23;99732.34;1764829;80;21046;-58
2022/09/24 12:01:07;;;;;;;1.17;0.70;;;;;;;18.82;76.05;99731.60;1757705;81;21085;-58
2022/09/24 12:04:03;;;;;;;1.43;0.70;;;;;;;18.64;79.03;99730.10;1758315;81;39216;-58
2022/09/24 12:06:37;;;;;;;1.10;0.60;;;;;;;18.44;79.96;99735.94;1757468;81;21421;-58
2022/09/24 12:09:15;;;;;;;1.33;0.50;;;;;;;18.23;80.09;99737.03;1753835;81;20995;-59
2022/09/24 12:12:08;;;;;;;0.77;0.30;;;;;;;18.08;81.34;99734.73;1750486;81;20980;-66
2022/09/24 12:14:58;;;;;;;2.47;0.97;;;;;;;17.95;83.46;99735.35;1750097;81;21002;-59
2022/09/24 12:17:36;;;;;;;1.20;0.43;;;;;;;17.91;87.69;99732.13;1749211;81;21189;-62
2022/09/24 12:20:28;;;;;;;1.37;0.50;;;;;;;17.99;84.59;99728.58;1764056;80;20888;-59